createdAt,value
2023-04-07T00:00:56.073Z,0.88
2023-04-07T00:03:23.830Z,0.87
2023-04-07T00:05:51.183Z,0.85
2023-04-07T00:08:18.552Z,0.87
2023-04-07T00:10:45.840Z,0.91
2023-04-07T00:13:13.089Z,0.89
2023-04-07T00:15:40.453Z,0.95
2023-04-07T00:18:07.822Z,0.88
2023-04-07T00:20:35.140Z,1.02
2023-04-07T00:23:02.437Z,0.98
2023-04-07T00:25:29.684Z,0.97
2023-04-07T00:27:56.907Z,1.05
2023-04-07T00:30:24.337Z,1.08
2023-04-07T00:32:51.845Z,0.99
2023-04-07T00:35:19.199Z,1.01
2023-04-07T00:37:46.452Z,1.01
2023-04-07T00:40:13.764Z,1.00
2023-04-07T00:42:41.338Z,1.08
2023-04-07T00:45:10.592Z,1.10
2023-04-07T00:47:38.948Z,1.08
2023-04-07T00:50:06.694Z,1.17
2023-04-07T00:52:33.923Z,1.01
2023-04-07T00:55:01.991Z,1.00
2023-04-07T00:57:29.241Z,1.07
2023-04-07T00:59:56.535Z,0.91
2023-04-07T01:02:44.039Z,1.03
2023-04-07T01:05:17.104Z,1.11
2023-04-07T01:08:02.379Z,1.12
2023-04-07T01:10:51.671Z,1.14
2023-04-07T01:13:26.209Z,1.11
2023-04-07T01:15:59.535Z,1.04
2023-04-07T01:18:32.265Z,0.98
2023-04-07T01:21:05.115Z,1.10
2023-04-07T01:24:06.800Z,0.91
2023-04-07T01:26:34.102Z,1.10
2023-04-07T01:29:37.335Z,1.09
2023-04-07T01:32:06.244Z,1.05
2023-04-07T01:34:33.677Z,1.11
2023-04-07T01:37:01.988Z,1.09
2023-04-07T01:39:29.381Z,1.04
2023-04-07T01:41:57.094Z,1.04
2023-04-07T01:44:24.428Z,0.98
2023-04-07T01:46:51.882Z,1.06
2023-04-07T01:49:19.141Z,1.10
2023-04-07T01:51:52.371Z,1.06
2023-04-07T01:54:19.691Z,1.11
2023-04-07T01:56:46.974Z,1.18
2023-04-07T01:59:14.252Z,1.16
2023-04-07T02:01:42.743Z,1.13
2023-04-07T02:04:26.264Z,1.15
2023-04-07T02:06:56.486Z,1.20
2023-04-07T02:09:33.103Z,1.21
2023-04-07T02:12:00.979Z,1.20
2023-04-07T02:14:32.410Z,1.14
2023-04-07T02:17:04.267Z,1.16
2023-04-07T02:19:34.734Z,1.24
2023-04-07T02:22:05.596Z,1.25
2023-04-07T02:24:32.923Z,1.36
2023-04-07T02:27:02.167Z,1.27
2023-04-07T02:29:29.654Z,1.36
2023-04-07T02:31:56.994Z,1.26
2023-04-07T02:34:24.337Z,1.37
2023-04-07T02:36:51.672Z,1.29
2023-04-07T02:39:18.961Z,1.38
2023-04-07T02:41:46.307Z,1.12
2023-04-07T02:44:13.565Z,1.16
2023-04-07T02:46:41.441Z,1.24
2023-04-07T02:49:08.750Z,1.33
2023-04-07T02:51:35.986Z,1.25
2023-04-07T02:54:03.300Z,1.32
2023-04-07T02:56:31.450Z,1.27
2023-04-07T02:58:58.822Z,1.33
2023-04-07T03:01:26.506Z,1.41
2023-04-07T03:03:54.130Z,1.40
2023-04-07T03:06:24.625Z,1.39
2023-04-07T03:09:09.587Z,1.35
2023-04-07T03:11:37.509Z,1.38
2023-04-07T03:14:04.872Z,1.33
2023-04-07T03:16:33.532Z,1.26
2023-04-07T03:19:08.984Z,1.34
2023-04-07T03:21:40.502Z,1.28
2023-04-07T03:24:08.161Z,1.35
2023-04-07T03:26:35.528Z,1.36
2023-04-07T03:29:04.402Z,1.30
2023-04-07T03:31:32.195Z,1.34
2023-04-07T03:33:59.576Z,1.31
2023-04-07T03:36:28.242Z,1.29
2023-04-07T03:38:58.131Z,1.37
2023-04-07T03:41:25.560Z,1.36
2023-04-07T03:43:52.924Z,1.39
2023-04-07T03:46:21.511Z,1.34
2023-04-07T03:48:48.845Z,1.36
2023-04-07T03:51:16.304Z,1.35
2023-04-07T03:53:45.779Z,1.39
2023-04-07T03:56:25.407Z,1.32
2023-04-07T03:58:53.744Z,1.37
2023-04-07T04:01:31.449Z,1.42
2023-04-07T04:04:05.525Z,1.43
2023-04-07T04:06:32.983Z,1.48
2023-04-07T04:09:29.808Z,1.52
2023-04-07T04:11:57.150Z,1.50
2023-04-07T04:14:25.017Z,1.57
2023-04-07T04:16:57.279Z,1.51
2023-04-07T04:19:32.009Z,1.49
2023-04-07T04:22:03.654Z,1.42
2023-04-07T04:24:35.819Z,1.42
2023-04-07T04:27:04.714Z,1.33
2023-04-07T04:29:33.430Z,1.35
2023-04-07T04:32:02.935Z,1.22
2023-04-07T04:34:31.023Z,1.18
2023-04-07T04:36:59.541Z,1.06
2023-04-07T04:39:27.101Z,1.25
2023-04-07T04:41:54.489Z,1.15
2023-04-07T04:44:25.400Z,1.16
2023-04-07T04:46:53.039Z,1.27
2023-04-07T04:49:20.489Z,1.28
2023-04-07T04:51:50.010Z,1.32
2023-04-07T04:54:19.248Z,1.36
2023-04-07T04:56:46.519Z,1.18
2023-04-07T04:59:13.938Z,1.41
2023-04-07T05:01:58.969Z,1.41
2023-04-07T05:04:28.436Z,1.39
2023-04-07T05:07:03.590Z,1.53
2023-04-07T05:09:32.579Z,1.53
2023-04-07T05:11:59.945Z,1.57
2023-04-07T05:14:29.521Z,1.60
2023-04-07T05:17:04.328Z,1.61
2023-04-07T05:19:32.540Z,1.70
2023-04-07T05:22:05.600Z,1.70
2023-04-07T05:24:41.181Z,1.72
2023-04-07T05:27:08.485Z,1.68
2023-04-07T05:29:36.633Z,1.51
2023-04-07T05:32:05.950Z,1.63
2023-04-07T05:34:33.638Z,1.71
2023-04-07T05:37:01.042Z,1.73
2023-04-07T05:39:28.878Z,1.67
2023-04-07T05:41:58.191Z,1.82
2023-04-07T05:44:27.708Z,1.89
2023-04-07T05:46:56.070Z,1.85
2023-04-07T05:49:25.262Z,1.91
2023-04-07T05:52:01.204Z,1.94
2023-04-07T05:54:28.638Z,1.95
2023-04-07T05:56:57.846Z,1.94
2023-04-07T05:59:25.192Z,1.94
2023-04-07T06:01:53.189Z,1.92
2023-04-07T06:04:21.200Z,2.03
2023-04-07T06:06:50.751Z,2.06
2023-04-07T06:09:19.231Z,2.09
2023-04-07T06:11:47.215Z,2.16
2023-04-07T06:14:17.647Z,2.03
2023-04-07T06:16:44.960Z,2.22
2023-04-07T06:19:12.390Z,2.24
2023-04-07T06:21:40.091Z,2.17
2023-04-07T06:24:07.644Z,2.29
2023-04-07T06:26:36.329Z,2.21
2023-04-07T06:29:03.689Z,2.21
2023-04-07T06:31:31.483Z,2.17
2023-04-07T06:33:58.824Z,2.28
2023-04-07T06:36:27.744Z,2.17
2023-04-07T06:38:55.656Z,2.19
2023-04-07T06:41:22.904Z,2.20
2023-04-07T06:43:51.501Z,2.37
2023-04-07T06:46:19.111Z,2.37
2023-04-07T06:48:46.441Z,2.47
2023-04-07T06:51:13.698Z,2.58
2023-04-07T06:53:42.043Z,2.56
2023-04-07T06:56:10.749Z,2.56
2023-04-07T06:58:38.185Z,2.66
2023-04-07T07:01:06.187Z,2.69
2023-04-07T07:03:33.585Z,2.71
2023-04-07T07:06:01.255Z,2.80
2023-04-07T07:08:29.143Z,2.85
2023-04-07T07:10:56.494Z,2.69
2023-04-07T07:13:24.933Z,2.67
2023-04-07T07:15:52.587Z,2.81
2023-04-07T07:18:20.123Z,2.87
2023-04-07T07:20:47.350Z,2.87
2023-04-07T07:23:14.681Z,3.03
2023-04-07T07:25:42.091Z,3.12
2023-04-07T07:28:09.824Z,3.26
2023-04-07T07:30:39.384Z,3.22
2023-04-07T07:33:06.801Z,3.26
2023-04-07T07:35:34.442Z,3.18
2023-04-07T07:38:01.752Z,3.10
2023-04-07T07:40:29.025Z,2.98
2023-04-07T07:42:56.726Z,2.89
2023-04-07T07:45:24.100Z,2.83
2023-04-07T07:47:51.358Z,2.98
2023-04-07T07:50:18.733Z,3.17
2023-04-07T07:52:46.302Z,3.26
2023-04-07T07:55:13.542Z,3.35
2023-04-07T07:57:40.805Z,3.37
2023-04-07T08:00:08.581Z,3.52
2023-04-07T08:02:41.994Z,3.47
2023-04-07T08:05:09.631Z,3.60
2023-04-07T08:07:37.766Z,3.57
2023-04-07T08:10:05.729Z,3.70
2023-04-07T08:12:32.946Z,3.67
2023-04-07T08:15:00.413Z,3.65
2023-04-07T08:17:27.698Z,3.56
2023-04-07T08:19:54.961Z,3.55
2023-04-07T08:22:25.267Z,3.63
2023-04-07T08:24:52.522Z,3.67
2023-04-07T08:27:20.902Z,3.59
2023-04-07T08:30:01.074Z,3.81
2023-04-07T08:32:35.696Z,3.80
2023-04-07T08:35:03.131Z,3.85
2023-04-07T08:37:31.468Z,3.81
2023-04-07T08:39:58.737Z,3.88
2023-04-07T08:42:28.478Z,3.74
2023-04-07T08:45:05.854Z,3.68
2023-04-07T08:47:34.178Z,3.98
2023-04-07T08:50:08.939Z,4.00
2023-04-07T08:52:46.634Z,4.03
2023-04-07T08:55:13.926Z,4.13
2023-04-07T08:57:44.103Z,4.20
2023-04-07T09:00:11.983Z,4.10
2023-04-07T09:02:41.139Z,4.25
2023-04-07T09:05:09.095Z,4.22
2023-04-07T09:07:37.537Z,4.07
2023-04-07T09:10:05.516Z,4.21
2023-04-07T09:12:32.988Z,4.25
2023-04-07T09:15:00.492Z,4.26
2023-04-07T09:17:28.454Z,4.35
2023-04-07T09:19:59.292Z,4.45
2023-04-07T09:22:43.179Z,4.45
2023-04-07T09:25:22.923Z,4.41
2023-04-07T09:28:00.731Z,4.52
2023-04-07T09:30:29.143Z,4.62
2023-04-07T09:32:56.793Z,4.62
2023-04-07T09:35:24.853Z,4.71
2023-04-07T09:38:10.662Z,4.65
2023-04-07T09:40:38.635Z,4.78
2023-04-07T09:43:06.081Z,4.89
2023-04-07T09:45:36.552Z,5.10
2023-04-07T09:48:08.794Z,5.05
2023-04-07T09:50:39.157Z,5.15
2023-04-07T09:53:07.141Z,5.04
2023-04-07T09:55:35.048Z,4.80
2023-04-07T09:58:02.531Z,4.97
2023-04-07T10:00:29.831Z,4.73
2023-04-07T10:02:57.951Z,4.94
2023-04-07T10:05:25.560Z,4.96
2023-04-07T10:07:52.899Z,5.09
2023-04-07T10:10:20.404Z,4.95
2023-04-07T10:12:47.690Z,4.97
2023-04-07T10:15:16.046Z,4.74
2023-04-07T10:17:48.423Z,4.86
2023-04-07T10:20:20.957Z,4.87
2023-04-07T10:22:49.396Z,4.70
2023-04-07T10:25:18.539Z,4.81
2023-04-07T10:27:51.314Z,4.68
2023-04-07T10:30:22.456Z,4.71
2023-04-07T10:32:50.621Z,4.69
2023-04-07T10:35:18.034Z,4.65
2023-04-07T10:38:07.125Z,4.57
2023-04-07T10:40:35.577Z,4.69
2023-04-07T10:43:03.061Z,4.79
2023-04-07T10:45:48.944Z,4.74
2023-04-07T10:48:17.255Z,4.55
2023-04-07T10:51:08.393Z,4.56
2023-04-07T10:53:36.273Z,4.49
2023-04-07T10:56:03.599Z,4.57
2023-04-07T10:58:33.915Z,4.73
2023-04-07T11:01:01.354Z,4.85
2023-04-07T11:03:29.600Z,5.01
2023-04-07T11:06:10.673Z,5.11
2023-04-07T11:08:39.576Z,4.98
2023-04-07T11:11:09.419Z,4.97
2023-04-07T11:13:46.861Z,4.88
2023-04-07T11:16:17.977Z,4.82
2023-04-07T11:18:46.432Z,4.92
2023-04-07T11:21:19.377Z,4.44
2023-04-07T11:23:47.965Z,4.84
2023-04-07T11:26:16.121Z,4.92
2023-04-07T11:28:46.918Z,4.74
2023-04-07T11:31:23.043Z,4.83
2023-04-07T11:34:00.339Z,4.88
2023-04-07T11:36:38.874Z,4.73
2023-04-07T11:39:06.145Z,4.84
2023-04-07T11:41:33.688Z,4.82
2023-04-07T11:44:08.294Z,4.78
2023-04-07T11:46:36.333Z,4.89
2023-04-07T11:49:11.115Z,4.92
2023-04-07T11:51:38.528Z,4.89
2023-04-07T11:54:05.924Z,4.74
2023-04-07T11:56:48.094Z,4.67
2023-04-07T11:59:23.258Z,4.81
2023-04-07T12:01:51.319Z,4.88
2023-04-07T12:04:19.290Z,4.98
2023-04-07T12:06:47.660Z,4.98
2023-04-07T12:09:29.328Z,4.99
2023-04-07T12:11:57.916Z,4.89
2023-04-07T12:14:26.358Z,4.96
2023-04-07T12:16:56.532Z,4.70
2023-04-07T12:19:25.617Z,4.93
2023-04-07T12:21:52.891Z,5.06
2023-04-07T12:24:20.214Z,5.05
2023-04-07T12:26:48.086Z,5.02
2023-04-07T12:29:16.374Z,4.98
2023-04-07T12:31:43.938Z,5.03
2023-04-07T12:34:11.487Z,5.05
2023-04-07T12:36:38.973Z,5.04
2023-04-07T12:39:06.463Z,4.91
2023-04-07T12:41:33.758Z,4.73
2023-04-07T12:44:01.037Z,4.57
2023-04-07T12:46:28.417Z,4.60
2023-04-07T12:48:56.224Z,4.66
2023-04-07T12:51:23.688Z,4.70
2023-04-07T12:53:51.192Z,4.75
2023-04-07T12:56:18.540Z,4.53
2023-04-07T12:58:46.049Z,4.50
2023-04-07T13:01:13.501Z,4.65
2023-04-07T13:03:41.278Z,4.48
2023-04-07T13:06:08.592Z,4.66
2023-04-07T13:08:36.006Z,4.95
2023-04-07T13:11:03.434Z,5.00
2023-04-07T13:13:31.406Z,5.21
2023-04-07T13:15:58.770Z,5.08
2023-04-07T13:18:26.169Z,5.18
2023-04-07T13:21:13.158Z,5.18
2023-04-07T13:23:43.699Z,4.88
2023-04-07T13:26:11.711Z,4.87
2023-04-07T13:28:39.168Z,4.96
2023-04-07T13:31:06.576Z,4.97
2023-04-07T13:33:34.827Z,4.69
2023-04-07T13:36:02.166Z,4.82
2023-04-07T13:38:29.522Z,4.64
2023-04-07T13:40:56.880Z,4.55
2023-04-07T13:43:24.193Z,4.63
2023-04-07T13:45:51.755Z,4.50
2023-04-07T13:48:19.125Z,4.42
2023-04-07T13:50:46.408Z,4.58
2023-04-07T13:53:13.669Z,4.69
2023-04-07T13:55:41.192Z,5.01
2023-04-07T13:58:08.539Z,4.99
2023-04-07T14:00:38.356Z,4.88
2023-04-07T14:03:05.829Z,4.91
2023-04-07T14:05:33.286Z,4.95
2023-04-07T14:08:00.576Z,4.96
2023-04-07T14:10:27.895Z,5.16
2023-04-07T14:12:55.120Z,4.81
2023-04-07T14:15:22.420Z,4.78
2023-04-07T14:17:49.778Z,4.67
2023-04-07T14:20:17.171Z,4.75
2023-04-07T14:22:44.630Z,4.77
2023-04-07T14:25:12.272Z,4.48
2023-04-07T14:27:39.645Z,4.56
2023-04-07T14:30:07.536Z,4.71
2023-04-07T14:32:36.010Z,4.74
2023-04-07T14:35:03.335Z,4.64
2023-04-07T14:37:30.688Z,4.65
2023-04-07T14:42:29.798Z,4.57
2023-04-07T14:44:57.154Z,4.36
2023-04-07T14:47:24.506Z,4.31
2023-04-07T14:49:53.541Z,4.58
2023-04-07T14:52:22.080Z,4.74
2023-04-07T14:54:49.491Z,4.35
2023-04-07T14:57:17.169Z,4.44
2023-04-07T14:59:44.623Z,4.49
2023-04-07T15:02:12.025Z,4.44
2023-04-07T15:04:39.634Z,4.38
2023-04-07T15:07:07.014Z,4.44
2023-04-07T15:09:34.388Z,4.51
2023-04-07T15:12:02.255Z,4.57
2023-04-07T15:14:29.615Z,4.34
2023-04-07T15:16:56.893Z,4.16
2023-04-07T15:19:24.114Z,4.00
2023-04-07T15:21:51.381Z,4.30
2023-04-07T15:24:19.700Z,4.31
2023-04-07T15:26:47.017Z,4.30
2023-04-07T15:29:14.305Z,4.28
2023-04-07T15:31:41.583Z,4.32
2023-04-07T15:34:08.840Z,4.18
2023-04-07T15:36:36.085Z,4.33
2023-04-07T15:39:04.521Z,4.19
2023-04-07T15:41:31.885Z,4.10
2023-04-07T15:44:01.491Z,4.13
2023-04-07T15:46:28.979Z,4.15
2023-04-07T15:48:56.304Z,4.03
2023-04-07T15:51:23.664Z,4.12
2023-04-07T15:53:51.105Z,4.00
2023-04-07T15:56:18.653Z,4.15
2023-04-07T15:58:46.057Z,3.97
2023-04-07T16:01:13.412Z,3.95
2023-04-07T16:03:40.957Z,3.88
2023-04-07T16:06:08.346Z,3.97
2023-04-07T16:08:35.685Z,4.03
2023-04-07T16:11:02.968Z,4.17
2023-04-07T16:13:30.307Z,4.28
2023-04-07T16:15:57.757Z,4.04
2023-04-07T16:18:25.042Z,4.06
2023-04-07T16:20:52.254Z,4.01
2023-04-07T16:23:19.567Z,3.97
2023-04-07T16:25:46.839Z,3.76
2023-04-07T16:28:14.095Z,3.89
2023-04-07T16:30:41.446Z,3.85
2023-04-07T16:33:08.789Z,3.73
2023-04-07T16:35:36.393Z,3.59
2023-04-07T16:38:06.019Z,3.59
2023-04-07T16:40:33.503Z,3.54
2023-04-07T16:43:00.846Z,3.51
2023-04-07T16:45:28.128Z,3.39
2023-04-07T16:47:55.522Z,3.42
2023-04-07T16:50:22.949Z,3.46
2023-04-07T16:52:50.294Z,3.37
2023-04-07T16:55:17.658Z,3.41
2023-04-07T16:57:45.004Z,3.41
2023-04-07T17:00:13.061Z,3.40
2023-04-07T17:02:40.483Z,3.22
2023-04-07T17:05:08.311Z,3.19
2023-04-07T17:07:36.013Z,3.14
2023-04-07T17:10:03.788Z,3.09
2023-04-07T17:12:31.047Z,3.11
2023-04-07T17:14:58.329Z,3.16
2023-04-07T17:17:25.770Z,3.18
2023-04-07T17:19:53.889Z,3.09
2023-04-07T17:22:21.976Z,3.04
2023-04-07T17:24:49.286Z,3.13
2023-04-07T17:27:16.543Z,3.19
2023-04-07T17:29:43.821Z,3.17
2023-04-07T17:32:11.070Z,3.21
2023-04-07T17:34:38.306Z,3.14
2023-04-07T17:37:05.788Z,3.14
2023-04-07T17:39:33.051Z,3.17
2023-04-07T17:42:00.394Z,3.16
2023-04-07T17:44:27.801Z,3.08
2023-04-07T17:46:55.310Z,3.16
2023-04-07T17:49:22.721Z,3.24
2023-04-07T17:51:50.008Z,3.26
2023-04-07T17:54:17.346Z,3.21
2023-04-07T17:56:44.618Z,3.18
2023-04-07T17:59:12.045Z,3.14
2023-04-07T18:01:39.777Z,3.18
2023-04-07T18:04:07.387Z,3.16
2023-04-07T18:06:35.218Z,2.96
2023-04-07T18:09:04.637Z,3.16
2023-04-07T18:11:32.816Z,3.13
2023-04-07T18:14:00.568Z,3.03
2023-04-07T18:16:28.025Z,3.24
2023-04-07T18:18:55.424Z,3.20
2023-04-07T18:21:22.753Z,3.19
2023-04-07T18:23:50.185Z,3.27
2023-04-07T18:26:17.641Z,3.20
2023-04-07T18:28:44.910Z,3.10
2023-04-07T18:31:12.522Z,3.25
2023-04-07T18:33:39.853Z,3.27
2023-04-07T18:36:07.668Z,3.26
2023-04-07T18:38:35.958Z,3.20
2023-04-07T18:41:05.769Z,3.15
2023-04-07T18:43:33.031Z,3.19
2023-04-07T18:46:00.313Z,3.24
2023-04-07T18:48:27.761Z,3.16
2023-04-07T18:50:55.532Z,3.13
2023-04-07T18:53:23.473Z,3.16
2023-04-07T18:55:51.338Z,3.15
2023-04-07T18:58:19.394Z,3.22
2023-04-07T19:00:47.582Z,3.21
2023-04-07T19:03:14.987Z,3.15
2023-04-07T19:05:42.463Z,3.10
2023-04-07T19:08:09.840Z,3.06
2023-04-07T19:10:37.228Z,3.10
2023-04-07T19:13:04.793Z,3.09
2023-04-07T19:15:36.516Z,3.12
2023-04-07T19:18:04.113Z,3.12
2023-04-07T19:20:33.535Z,3.06
2023-04-07T19:23:01.959Z,3.07
2023-04-07T19:25:30.740Z,3.03
2023-04-07T19:27:58.248Z,2.95
2023-04-07T19:30:25.601Z,3.09
2023-04-07T19:32:53.296Z,3.08
2023-04-07T19:35:21.113Z,3.05
2023-04-07T19:37:48.526Z,3.13
2023-04-07T19:40:15.896Z,3.11
2023-04-07T19:42:43.143Z,3.05
2023-04-07T19:45:10.572Z,3.12
2023-04-07T19:47:38.487Z,3.16
2023-04-07T19:50:06.787Z,3.21
2023-04-07T19:52:34.126Z,3.21
2023-04-07T19:55:02.744Z,3.13
2023-04-07T19:57:31.263Z,3.10
2023-04-07T19:59:58.508Z,3.06
2023-04-07T20:02:26.054Z,2.96
2023-04-07T20:04:53.758Z,2.93
2023-04-07T20:07:21.912Z,2.98
2023-04-07T20:09:51.435Z,2.99
2023-04-07T20:12:18.786Z,2.99
2023-04-07T20:14:46.380Z,2.96
2023-04-07T20:17:13.592Z,2.93
2023-04-07T20:19:41.533Z,2.93
2023-04-07T20:22:08.917Z,2.99
2023-04-07T20:24:36.275Z,2.97
2023-04-07T20:27:03.610Z,3.02
2023-04-07T20:29:31.216Z,3.05
2023-04-07T20:31:58.501Z,3.03
2023-04-07T20:34:25.911Z,3.04
2023-04-07T20:36:53.197Z,3.08
2023-04-07T20:39:20.529Z,3.12
2023-04-07T20:41:48.019Z,3.11
2023-04-07T20:44:15.328Z,3.01
2023-04-07T20:46:44.003Z,3.05
2023-04-07T20:49:11.248Z,3.07
2023-04-07T20:51:38.519Z,3.05
2023-04-07T20:54:06.036Z,3.05
2023-04-07T20:56:33.386Z,2.96
2023-04-07T20:59:00.897Z,3.05
2023-04-07T21:01:28.407Z,3.03
2023-04-07T21:03:55.788Z,3.10
2023-04-07T21:06:23.078Z,2.94
2023-04-07T21:08:50.554Z,2.80
2023-04-07T21:11:17.920Z,2.80
2023-04-07T21:13:45.416Z,2.85
2023-04-07T21:16:12.738Z,2.89
2023-04-07T21:18:40.108Z,2.87
2023-04-07T21:21:08.267Z,2.84
2023-04-07T21:23:35.559Z,2.78
2023-04-07T21:26:05.998Z,2.81
2023-04-07T21:28:33.301Z,2.83
2023-04-07T21:31:01.381Z,2.74
2023-04-07T21:33:28.955Z,2.69
2023-04-07T21:35:56.532Z,2.61
2023-04-07T21:38:23.865Z,2.83
2023-04-07T21:40:51.331Z,2.86
2023-04-07T21:43:18.605Z,2.95
2023-04-07T21:45:47.070Z,2.93
2023-04-07T21:48:20.840Z,2.92
2023-04-07T21:50:48.180Z,2.95
2023-04-07T21:53:15.431Z,2.94
2023-04-07T21:55:42.700Z,2.93
2023-04-07T21:58:10.386Z,2.91
2023-04-07T22:00:38.540Z,2.98
2023-04-07T22:03:07.163Z,2.96
2023-04-07T22:05:34.637Z,2.85
2023-04-07T22:08:03.137Z,2.83
2023-04-07T22:10:31.043Z,2.85
2023-04-07T22:12:58.307Z,2.77
2023-04-07T22:15:25.746Z,2.93
2023-04-07T22:17:53.099Z,2.85
2023-04-07T22:20:20.463Z,2.83
2023-04-07T22:22:47.724Z,2.92
2023-04-07T22:25:15.055Z,2.80
2023-04-07T22:27:42.362Z,2.73
2023-04-07T22:30:10.942Z,2.73
2023-04-07T22:32:38.377Z,2.74
2023-04-07T22:35:05.966Z,2.81
2023-04-07T22:37:33.232Z,2.74
2023-04-07T22:40:00.555Z,2.73
2023-04-07T22:42:27.814Z,2.73
2023-04-07T22:44:55.080Z,2.76
2023-04-07T22:47:22.640Z,2.76
2023-04-07T22:49:49.981Z,2.76
2023-04-07T22:52:17.248Z,2.86
2023-04-07T22:54:44.600Z,2.73
2023-04-07T22:57:11.883Z,2.60
2023-04-07T22:59:39.106Z,2.67
2023-04-07T23:02:06.393Z,2.62
2023-04-07T23:04:33.717Z,2.67
2023-04-07T23:07:01.450Z,2.67
2023-04-07T23:09:28.692Z,2.81
2023-04-07T23:11:57.101Z,2.77
2023-04-07T23:14:24.373Z,2.88
2023-04-07T23:16:51.748Z,2.86
2023-04-07T23:19:19.123Z,2.73
2023-04-07T23:21:46.389Z,2.69
2023-04-07T23:24:13.742Z,2.73
2023-04-07T23:26:41.088Z,2.72
2023-04-07T23:29:08.413Z,2.73
2023-04-07T23:31:35.930Z,2.68
2023-04-07T23:34:04.210Z,2.61
2023-04-07T23:36:31.605Z,2.63
2023-04-07T23:38:58.923Z,2.67
2023-04-07T23:41:26.181Z,2.60
2023-04-07T23:43:53.463Z,2.55
2023-04-07T23:46:22.096Z,2.47
2023-04-07T23:48:49.911Z,2.35
2023-04-07T23:51:17.342Z,2.41
2023-04-07T23:53:44.650Z,2.44
2023-04-07T23:56:12.011Z,2.45
2023-04-07T23:58:39.302Z,2.46
